Time;durP1;ratioP1;P1;durP2;ratioP2;P2;SDS_P1;SDS_P2;PMS_P1;PMS_P2;Temp;Humidity;BMP_temperature;BMP_pressure;BME280_temperature;BME280_humidity;BME280_pressure;Samples;Min_cycle;Max_cycle;Signal;HPM_P1;HPM_P2
2022/12/24 00:00:01;;;;;;;14.88;3.60;;;9.20;99.90;;;8.24;100.00;96815.84;5060582;28;20438;-73
2022/12/24 00:02:27;;;;;;;19.38;3.85;;;9.20;99.90;;;8.22;100.00;96817.94;5060291;28;20429;-72
2022/12/24 00:04:53;;;;;;;16.85;3.47;;;9.20;99.90;;;8.26;100.00;96823.53;5058845;28;20462;-73
2022/12/24 00:07:18;;;;;;;22.88;4.07;;;9.30;99.90;;;8.21;100.00;96818.97;5060692;28;20889;-73
2022/12/24 00:09:44;;;;;;;21.88;3.97;;;9.20;99.90;;;8.26;100.00;96819.03;5042655;28;20409;-72
2022/12/24 00:12:10;;;;;;;22.17;4.13;;;9.20;99.90;;;8.32;100.00;96825.97;5058456;28;20930;-73
2022/12/24 00:14:36;;;;;;;23.13;4.30;;;9.30;99.90;;;8.32;100.00;96828.63;5059240;28;20426;-73
2022/12/24 00:17:03;;;;;;;17.38;3.95;;;9.40;99.90;;;8.30;100.00;96819.31;5060158;28;20428;-73
2022/12/24 00:19:29;;;;;;;21.90;3.97;;;9.30;99.90;;;8.31;100.00;96823.59;5059139;28;20520;-73
2022/12/24 00:21:55;;;;;;;27.77;4.45;;;9.30;99.90;;;8.27;100.00;96828.53;5058180;28;20504;-73
2022/12/24 00:24:21;;;;;;;16.63;3.22;;;9.30;99.90;;;8.33;100.00;96824.94;5059677;28;20407;-73
2022/12/24 00:26:47;;;;;;;18.95;3.28;;;9.30;99.90;;;8.41;100.00;96829.75;5060632;28;20408;-73
2022/12/24 00:29:13;;;;;;;20.80;3.25;;;9.40;99.90;;;8.43;100.00;96829.47;5058745;28;20940;-73
2022/12/24 00:31:39;;;;;;;11.85;2.97;;;9.40;99.90;;;8.38;100.00;96832.88;5058644;28;20427;-72
2022/12/24 00:34:07;;;;;;;23.80;3.75;;;9.30;99.90;;;8.35;100.00;96825.47;5059547;28;20405;-72
2022/12/24 00:36:33;;;;;;;15.30;3.08;;;9.40;99.90;;;8.30;100.00;96819.31;5058709;28;20480;-73
2022/12/24 00:38:59;;;;;;;17.42;3.58;;;9.30;99.90;;;8.25;100.00;96825.34;5060065;28;20404;-73
2022/12/24 00:41:27;;;;;;;16.08;3.58;;;9.20;99.90;;;8.23;100.00;96839.81;5059331;28;20445;-73
2022/12/24 00:43:55;;;;;;;14.95;3.35;;;9.30;99.90;;;8.20;100.00;96840.31;5056955;28;20431;-73
2022/12/24 00:46:22;;;;;;;13.45;3.08;;;9.20;99.90;;;8.12;100.00;96841.53;5059726;28;20411;-74
2022/12/24 00:48:48;;;;;;;24.40;3.67;;;9.20;99.90;;;8.03;100.00;96837.78;5060389;28;20551;-74
2022/12/24 00:51:15;;;;;;;21.65;3.92;;;9.00;99.90;;;7.93;100.00;96829.75;5057809;28;20397;-74
2022/12/24 00:53:42;;;;;;;20.57;3.53;;;8.90;99.90;;;7.91;100.00;96832.66;5059160;28;20423;-74
2022/12/24 00:56:08;;;;;;;21.25;3.90;;;8.90;99.90;;;7.83;100.00;96835.72;5060252;28;20485;-73
2022/12/24 00:58:34;;;;;;;12.77;3.20;;;8.90;99.90;;;7.89;100.00;96836.59;5058372;28;20455;-73
2022/12/24 01:01:00;;;;;;;15.73;3.45;;;8.90;99.90;;;7.88;100.00;96848.97;5059757;28;20510;-73
2022/12/24 01:03:35;;;;;;;17.33;3.30;;;8.90;99.90;;;7.84;100.00;96855.75;5058682;28;20748;-73
2022/12/24 01:06:02;;;;;;;14.15;3.47;;;8.90;99.90;;;7.81;100.00;96853.63;5057502;28;20404;-73
2022/12/24 01:08:29;;;;;;;21.67;3.63;;;8.90;99.90;;;7.79;100.00;96863.59;5050509;28;20396;-73
2022/12/24 01:10:56;;;;;;;17.75;3.70;;;8.80;99.90;;;7.80;100.00;96872.31;5058296;28;20397;-73
2022/12/24 01:13:22;;;;;;;17.45;3.55;;;8.80;99.90;;;7.81;100.00;96876.53;5058418;28;20881;-74
2022/12/24 01:15:48;;;;;;;18.23;3.80;;;8.80;99.90;;;7.80;100.00;96894.19;5060159;28;20401;-74
2022/12/24 01:18:14;;;;;;;15.98;4.20;;;8.90;99.90;;;7.81;100.00;96881.81;5058279;28;20732;-74
2022/12/24 01:20:40;;;;;;;15.45;3.50;;;8.90;99.90;;;7.82;100.00;96899.97;5059373;28;20415;-73
2022/12/24 01:23:06;;;;;;;18.83;3.60;;;8.90;99.90;;;7.85;100.00;96902.16;5058848;28;20397;-73
2022/12/24 01:25:36;;;;;;;14.48;3.70;;;8.90;99.90;;;7.87;100.00;96905.34;5058226;28;20492;-73
2022/12/24 01:28:02;;;;;;;16.77;3.70;;;8.90;99.90;;;7.92;100.00;96910.66;5061559;28;20434;-74
2022/12/24 01:30:28;;;;;;;17.30;3.90;;;8.90;99.90;;;7.92;100.00;96915.94;5058278;28;20501;-74
2022/12/24 01:32:54;;;;;;;11.60;3.53;;;8.90;99.90;;;7.98;100.00;96922.06;5059123;28;20927;-73
2022/12/24 01:35:20;;;;;;;16.63;3.70;;;9.00;99.90;;;7.98;100.00;96911.50;5058720;28;20408;-73
2022/12/24 01:37:46;;;;;;;9.87;3.07;;;9.00;99.90;;;8.03;100.00;96920.28;5058677;28;20486;-73
2022/12/24 01:43:23;;;;;;;19.90;3.88;;;9.10;99.90;;;8.09;100.00;96942.22;5058978;28;20443;-72
2022/12/24 01:45:51;;;;;;;22.13;4.13;;;9.10;99.90;;;8.11;100.00;96953.34;5064250;28;20415;-74
2022/12/24 01:48:37;;;;;;;19.02;4.22;;;9.10;99.90;;;8.13;100.00;96973.13;5062021;28;20401;-74
2022/12/24 01:51:07;;;;;;;22.38;4.70;;;9.20;99.90;;;8.13;100.00;96970.47;5043723;28;20402;-73
2022/12/24 01:53:36;;;;;;;27.50;4.88;;;9.20;99.90;;;8.16;100.00;96974.47;5060869;28;20393;-73
2022/12/24 01:56:05;;;;;;;31.45;5.10;;;9.20;99.90;;;8.16;100.00;96980.53;5062912;28;20399;-73
2022/12/24 01:58:35;;;;;;;32.40;5.60;;;9.20;99.90;;;8.19;100.00;96983.75;5063705;28;20429;-73
2022/12/24 02:01:02;;;;;;;37.75;5.47;;;9.20;99.90;;;8.18;100.00;96982.94;5061033;28;20452;-75
2022/12/24 02:03:28;;;;;;;30.73;5.10;;;9.20;99.90;;;8.20;100.00;96993.22;5060800;28;20404;-74
2022/12/24 02:05:57;;;;;;;27.92;4.43;;;9.20;99.90;;;8.28;100.00;97011.25;5063715;28;20410;-74
2022/12/24 02:08:38;;;;;;;31.85;5.28;;;9.30;99.90;;;8.23;100.00;97001.44;5062380;28;20498;-74
2022/12/24 02:11:10;;;;;;;26.30;5.20;;;9.20;99.90;;;8.30;100.00;96999.44;5063603;28;20396;-74
2022/12/24 02:13:37;;;;;;;26.15;4.95;;;9.30;99.90;;;8.30;100.00;97002.06;5062425;28;20403;-72
2022/12/24 02:16:14;;;;;;;28.03;4.43;;;9.30;99.90;;;8.26;100.00;96993.06;5062301;28;20409;-75
2022/12/24 02:18:48;;;;;;;27.13;5.18;;;9.30;99.90;;;8.20;100.00;96982.69;5061706;28;20417;-74
2022/12/24 02:21:55;;;;;;;34.00;5.60;;;9.20;99.90;;;8.15;100.00;97007.16;5060651;28;20413;-74
2022/12/24 02:24:52;;;;;;;26.65;4.85;;;9.20;99.90;;;8.08;100.00;96988.88;5057663;28;20431;-74
2022/12/24 02:27:30;;;;;;;31.38;5.15;;;9.10;99.90;;;8.01;100.00;96988.25;5061572;28;21086;-76
2022/12/24 02:30:18;;;;;;;37.90;5.55;;;9.00;99.90;;;7.98;100.00;96999.28;5061141;28;20403;-74
2022/12/24 02:33:12;;;;;;;31.93;6.30;;;9.00;99.90;;;7.90;100.00;97012.06;5061059;28;20394;-73
2022/12/24 02:35:48;;;;;;;36.20;6.28;;;8.90;99.90;;;7.86;100.00;97008.34;5062803;28;20403;-75
2022/12/24 02:38:24;;;;;;;32.00;5.65;;;8.90;99.90;;;7.87;100.00;97004.66;5045220;28;20830;-73
2022/12/24 02:40:56;;;;;;;28.92;6.00;;;8.90;99.90;;;7.82;100.00;96994.06;5062699;28;20419;-75
2022/12/24 02:43:27;;;;;;;28.88;5.70;;;8.90;99.90;;;7.84;100.00;96995.41;5060776;28;20394;-74
2022/12/24 02:46:01;;;;;;;30.08;6.15;;;8.90;99.90;;;7.85;100.00;97007.53;5059705;28;20409;-74
2022/12/24 02:48:29;;;;;;;38.17;6.47;;;8.90;99.90;;;7.79;100.00;97011.16;5061342;28;20400;-73
2022/12/24 02:51:00;;;;;;;38.47;6.68;;;8.80;99.90;;;7.75;100.00;97018.72;5062740;28;20434;-73
2022/12/24 02:53:26;;;;;;;36.70;6.28;;;8.80;99.90;;;7.71;100.00;97032.63;5043202;28;20397;-73
2022/12/24 02:56:16;;;;;;;21.80;5.38;;;8.80;99.90;;;7.65;100.00;97031.78;5059691;28;21041;-74
2022/12/24 02:58:58;;;;;;;21.63;5.13;;;8.70;99.90;;;7.62;100.00;97026.16;5062610;28;20427;-75
2022/12/24 03:01:38;;;;;;;20.98;5.07;;;8.70;99.90;;;7.56;100.00;97027.13;5060584;28;20487;-75
2022/12/24 03:04:16;;;;;;;32.85;5.90;;;8.70;99.90;;;7.56;100.00;97030.56;5060951;28;20420;-75
2022/12/24 03:06:49;;;;;;;39.75;6.07;;;8.60;99.90;;;7.57;100.00;97037.44;5061370;28;20405;-73
2022/12/24 03:09:25;;;;;;;24.23;4.97;;;8.60;99.90;;;7.57;100.00;97040.06;5060369;28;20413;-75
2022/12/24 03:11:58;;;;;;;20.40;5.63;;;8.60;99.90;;;7.55;100.00;97052.69;5059946;28;20757;-75
2022/12/24 03:14:26;;;;;;;36.15;6.10;;;8.60;99.90;;;7.59;100.00;97055.63;5061013;28;20402;-74
2022/12/24 03:16:54;;;;;;;16.15;4.75;;;8.60;99.90;;;7.57;100.00;97060.34;5060243;28;20412;-73
2022/12/24 03:19:22;;;;;;;26.58;5.30;;;8.60;99.90;;;7.61;100.00;97058.81;5061736;28;20486;-75
2022/12/24 03:21:50;;;;;;;23.77;5.67;;;8.70;99.90;;;7.56;100.00;97054.28;5061113;28;20427;-75
2022/12/24 03:24:16;;;;;;;25.70;5.18;;;8.60;99.90;;;7.54;100.00;97056.34;5059715;28;20448;-75
2022/12/24 03:26:45;;;;;;;38.88;6.38;;;8.60;99.90;;;7.51;100.00;97075.28;5061523;28;20422;-75
2022/12/24 03:29:11;;;;;;;26.17;5.50;;;8.60;99.90;;;7.50;100.00;97072.88;5062086;28;20404;-74
2022/12/24 03:31:43;;;;;;;32.05;6.72;;;8.60;99.90;;;7.57;100.00;97066.41;5059580;28;20397;-73
2022/12/24 03:34:12;;;;;;;45.95;6.88;;;8.60;99.90;;;7.56;100.00;97064.81;5059734;28;20505;-75
2022/12/24 03:36:38;;;;;;;25.63;5.63;;;8.60;99.90;;;7.55;100.00;97060.56;5059923;28;20498;-75
2022/12/24 03:39:05;;;;;;;27.63;5.30;;;8.60;99.90;;;7.57;100.00;97058.50;5060892;28;20396;-75
2022/12/24 03:41:32;;;;;;;31.17;5.93;;;8.60;99.90;;;7.60;100.00;97070.38;5061107;28;20428;-75
2022/12/24 03:43:58;;;;;;;27.00;5.60;;;8.60;99.90;;;7.58;100.00;97089.09;5061301;28;20432;-75
2022/12/24 03:46:24;;;;;;;41.72;6.55;;;8.70;99.90;;;7.63;100.00;97083.09;5060662;28;20415;-73
2022/12/24 03:48:50;;;;;;;30.57;5.67;;;8.70;99.90;;;7.61;100.00;97079.88;5059858;28;20403;-75
2022/12/24 03:51:20;;;;;;;28.95;5.68;;;8.70;99.90;;;7.62;100.00;97084.13;5043086;28;20407;-72
2022/12/24 03:53:46;;;;;;;27.35;5.47;;;8.70;99.90;;;7.64;100.00;97077.59;5060457;28;20737;-72
2022/12/24 03:56:12;;;;;;;35.70;6.07;;;8.70;99.90;;;7.65;100.00;97070.47;5059520;28;20453;-72
2022/12/24 03:58:38;;;;;;;33.75;5.60;;;8.70;99.90;;;7.64;100.00;97072.31;5059624;28;20398;-73
2022/12/24 04:01:04;;;;;;;31.55;6.40;;;8.70;99.90;;;7.65;100.00;97073.13;5060320;28;20458;-74
2022/12/24 04:03:31;;;;;;;24.08;5.20;;;8.70;99.90;;;7.64;100.00;97076.78;5060280;28;20964;-74
2022/12/24 04:06:02;;;;;;;30.38;5.55;;;8.70;99.90;;;7.66;100.00;97069.44;5059012;28;20409;-74
2022/12/24 04:08:30;;;;;;;38.25;6.90;;;8.70;99.90;;;7.66;100.00;97074.72;5059856;28;20431;-72
2022/12/24 04:10:55;;;;;;;35.20;6.05;;;8.70;99.90;;;7.64;100.00;97071.50;5061114;28;20403;-72
2022/12/24 04:13:21;;;;;;;47.03;7.50;;;8.70;99.90;;;7.67;100.00;97089.47;5058694;28;20417;-72
2022/12/24 04:15:57;;;;;;;32.50;5.82;;;8.70;99.90;;;7.65;100.00;97096.81;5059786;28;20404;-73
2022/12/24 04:18:22;;;;;;;31.73;6.28;;;8.70;99.90;;;7.65;100.00;97078.38;5059785;28;20402;-72
2022/12/24 04:20:48;;;;;;;32.87;6.33;;;8.70;99.90;;;7.63;100.00;97073.34;5059461;28;20785;-73
2022/12/24 04:23:14;;;;;;;24.45;5.35;;;8.70;99.90;;;7.62;100.00;97084.13;5060284;28;20431;-72
2022/12/24 04:25:41;;;;;;;45.42;7.38;;;8.70;99.90;;;7.64;100.00;97093.38;5059256;28;21062;-72
2022/12/24 04:28:07;;;;;;;21.20;5.10;;;8.70;99.90;;;7.59;100.00;97092.53;5059849;28;20403;-72
2022/12/24 04:30:33;;;;;;;43.75;7.45;;;8.60;99.90;;;7.61;100.00;97082.53;5060756;28;20469;-72
2022/12/24 04:32:59;;;;;;;43.55;7.10;;;8.70;99.90;;;7.58;100.00;97064.56;5058015;28;20413;-72
2022/12/24 04:35:25;;;;;;;30.23;6.07;;;8.60;99.90;;;7.55;100.00;97075.56;5059505;28;20404;-72
2022/12/24 04:37:51;;;;;;;46.05;7.85;;;8.60;99.90;;;7.54;100.00;97080.03;5060683;28;20405;-72
2022/12/24 04:40:17;;;;;;;39.42;7.28;;;8.60;99.90;;;7.51;100.00;97085.81;5058441;28;20417;-72
2022/12/24 04:42:44;;;;;;;18.67;5.53;;;8.60;99.90;;;7.49;100.00;97076.53;5057719;28;20404;-72
2022/12/24 04:45:10;;;;;;;39.47;6.75;;;8.60;99.90;;;7.52;100.00;97089.25;5042451;28;20838;-72
2022/12/24 04:47:37;;;;;;;47.63;7.50;;;8.60;99.90;;;7.52;100.00;97105.81;5060097;28;20409;-72
2022/12/24 04:50:03;;;;;;;43.63;7.78;;;8.60;99.90;;;7.49;100.00;97101.03;5068247;28;20804;-71
2022/12/24 04:52:29;;;;;;;29.63;5.57;;;8.50;99.90;;;7.39;100.00;97101.66;5062217;28;20405;-72
2022/12/24 04:54:55;;;;;;;47.45;8.00;;;8.50;99.90;;;7.39;100.00;97104.28;5042971;28;20530;-72
2022/12/24 04:57:21;;;;;;;34.90;6.83;;;8.50;99.90;;;7.37;100.00;97105.56;5060135;28;20400;-71
2022/12/24 04:59:48;;;;;;;30.70;6.10;;;8.40;99.90;;;7.34;100.00;97120.00;5059636;28;20429;-75
2022/12/24 05:02:14;;;;;;;39.17;7.50;;;8.40;99.90;;;7.32;100.00;97110.75;5057563;28;20425;-72
2022/12/24 05:04:40;;;;;;;43.92;6.97;;;8.40;99.90;;;7.29;100.00;97103.34;5059598;28;20435;-72
2022/12/24 05:07:06;;;;;;;30.45;5.72;;;8.40;99.90;;;7.32;100.00;97108.09;5059244;28;20397;-72
2022/12/24 05:09:32;;;;;;;32.47;6.10;;;8.40;99.90;;;7.33;100.00;97107.88;5058614;28;20496;-72
2022/12/24 05:11:58;;;;;;;41.28;7.00;;;8.40;99.90;;;7.33;100.00;97109.72;5059461;28;20416;-72
2022/12/24 05:14:23;;;;;;;26.25;5.22;;;8.40;99.90;;;7.29;100.00;97096.22;5058891;28;20406;-72
2022/12/24 05:16:51;;;;;;;31.98;6.90;;;8.40;99.90;;;7.26;100.00;97101.97;5058536;28;20883;-72
2022/12/24 05:19:17;;;;;;;36.75;6.57;;;8.40;99.90;;;7.24;100.00;97119.03;5059972;28;20454;-72
2022/12/24 05:21:42;;;;;;;30.13;6.15;;;8.30;99.90;;;7.23;100.00;97120.84;5058311;28;20886;-72
2022/12/24 05:26:56;;;;;;;37.45;6.22;;;8.30;99.90;;;7.19;100.00;97106.56;5060179;28;20395;-72
2022/12/24 05:29:22;;;;;;;39.30;6.95;;;8.30;99.90;;;7.22;100.00;97111.34;5058783;28;20402;-72
2022/12/24 05:31:49;;;;;;;35.37;6.13;;;8.30;99.90;;;7.28;100.00;97110.44;5058128;28;20395;-72
2022/12/24 05:34:16;;;;;;;46.00;6.97;;;8.30;99.90;;;7.26;100.00;97112.50;5059869;28;20406;-74
2022/12/24 05:36:43;;;;;;;28.13;5.57;;;8.30;99.90;;;7.38;100.00;97101.88;5058574;28;20902;-73
2022/12/24 05:39:13;;;;;;;19.63;5.57;;;8.30;99.90;;;7.34;100.00;97100.78;5058695;28;20404;-74
2022/12/24 05:41:39;;;;;;;28.30;5.37;;;8.40;99.90;;;7.28;100.00;97107.78;5057273;28;20417;-74
2022/12/24 05:44:05;;;;;;;25.88;5.70;;;8.40;99.90;;;7.26;100.00;97109.88;5058824;28;20490;-74
2022/12/24 05:46:30;;;;;;;26.52;5.72;;;8.30;99.90;;;7.21;100.00;97108.97;5058830;28;20419;-72
2022/12/24 05:48:56;;;;;;;32.50;5.60;;;8.30;99.90;;;7.13;100.00;97102.25;5062473;28;20582;-75
2022/12/24 05:51:23;;;;;;;33.73;6.00;;;8.20;99.90;;;7.09;100.00;97116.09;5059222;28;20811;-74
2022/12/24 05:53:51;;;;;;;34.28;5.78;;;8.20;99.90;;;7.07;100.00;97116.34;5058880;28;20492;-74
2022/12/24 05:56:20;;;;;;;40.25;7.05;;;8.10;99.90;;;7.02;100.00;97116.25;5057805;28;20405;-74
2022/12/24 05:58:46;;;;;;;27.90;6.07;;;8.10;99.90;;;6.95;100.00;97119.03;5058910;28;20886;-75
2022/12/24 06:01:13;;;;;;;34.75;6.30;;;8.00;99.90;;;6.95;100.00;97123.47;5059512;28;20502;-74
2022/12/24 06:03:39;;;;;;;35.40;6.15;;;8.00;99.90;;;6.91;100.00;97115.28;5055836;28;20855;-75
2022/12/24 06:06:08;;;;;;;40.40;6.75;;;8.00;99.90;;;6.93;100.00;97112.38;5058959;28;20400;-77
2022/12/24 06:08:37;;;;;;;30.55;5.35;;;8.00;99.90;;;6.88;100.00;97114.94;5059632;28;20430;-76
2022/12/24 06:11:06;;;;;;;28.95;5.68;;;8.00;99.90;;;6.88;100.00;97125.44;5058130;28;20402;-75
2022/12/24 06:13:32;;;;;;;32.33;6.70;;;8.00;99.90;;;6.86;100.00;97135.41;5056960;28;20400;-76
2022/12/24 06:16:00;;;;;;;30.42;5.35;;;8.00;99.90;;;6.84;100.00;97135.63;5059522;28;20465;-76
2022/12/24 06:18:27;;;;;;;33.67;6.10;;;7.90;99.90;;;6.83;100.00;97126.16;5058710;28;20401;-75
2022/12/24 06:20:55;;;;;;;40.58;6.70;;;7.90;99.90;;;6.83;100.00;97134.06;5056890;28;20423;-76
2022/12/24 06:23:22;;;;;;;43.40;5.95;;;7.90;99.90;;;6.81;100.00;97130.84;5056001;28;20397;-76
2022/12/24 06:25:50;;;;;;;32.00;6.45;;;7.90;99.90;;;6.81;100.00;97141.38;5057244;28;20800;-76
2022/12/24 06:28:17;;;;;;;30.77;6.30;;;7.90;99.90;;;6.72;100.00;97128.81;5059453;28;20956;-75
2022/12/24 06:30:47;;;;;;;28.63;5.27;;;7.80;99.90;;;6.67;100.00;97141.88;5060278;28;20492;-76
2022/12/24 06:33:13;;;;;;;23.15;5.07;;;7.80;99.90;;;6.62;100.00;97145.16;5060064;28;20762;-76
2022/12/24 06:35:39;;;;;;;41.00;6.78;;;7.70;99.90;;;6.62;100.00;97139.91;5062979;28;20396;-76
2022/12/24 06:38:05;;;;;;;35.80;6.55;;;7.70;99.90;;;6.56;100.00;97159.25;5061596;28;20964;-76
2022/12/24 06:40:31;;;;;;;35.72;6.85;;;7.70;99.90;;;6.55;100.00;97162.91;5061155;28;20396;-76
2022/12/24 06:42:58;;;;;;;36.30;6.88;;;7.60;99.90;;;6.48;100.00;97170.91;5061954;28;20984;-76
2022/12/24 06:45:24;;;;;;;37.45;6.30;;;7.60;99.90;;;6.46;100.00;97180.88;5061373;28;20944;-77
2022/12/24 06:47:50;;;;;;;37.38;6.90;;;7.60;99.90;;;6.45;100.00;97184.53;5061390;28;20400;-77
2022/12/24 06:50:16;;;;;;;26.23;6.37;;;7.60;99.90;;;6.49;100.00;97187.50;5062597;28;20480;-77
2022/12/24 06:52:42;;;;;;;34.08;6.40;;;7.60;99.90;;;6.51;100.00;97201.22;5060044;28;20401;-76
2022/12/24 06:55:09;;;;;;;30.52;5.97;;;7.60;99.90;;;6.52;100.00;97201.00;5061376;28;20478;-77
2022/12/24 06:57:35;;;;;;;41.67;7.18;;;7.60;99.90;;;6.57;100.00;97203.72;5062649;28;20419;-77
2022/12/24 07:00:03;;;;;;;28.63;6.10;;;7.60;99.90;;;6.55;100.00;97205.78;5060457;28;21241;-80
2022/12/24 07:02:29;;;;;;;24.35;5.88;;;7.70;99.90;;;6.61;100.00;97196.19;5060267;28;20637;-79
2022/12/24 07:04:55;;;;;;;31.40;6.13;;;7.70;99.90;;;6.72;100.00;97207.72;5062109;28;20408;-78
2022/12/24 07:07:21;;;;;;;25.50;5.87;;;7.80;99.90;;;6.76;100.00;97201.78;5060565;28;20500;-78
2022/12/24 07:09:47;;;;;;;36.35;6.68;;;7.80;99.90;;;6.77;100.00;97186.78;5061122;28;20885;-78
2022/12/24 07:12:13;;;;;;;39.92;7.00;;;7.90;99.90;;;6.76;100.00;97209.69;5061314;28;20484;-78
2022/12/24 07:14:39;;;;;;;27.85;5.85;;;7.80;99.90;;;6.70;100.00;97207.94;5059850;28;20492;-79
2022/12/24 07:17:06;;;;;;;29.90;5.97;;;7.80;99.90;;;6.68;100.00;97222.38;5061261;28;20409;-80
2022/12/24 07:19:33;;;;;;;52.60;6.82;;;7.80;99.90;;;6.68;100.00;97220.53;5061890;28;20405;-79
2022/12/24 07:21:59;;;;;;;34.38;6.72;;;7.70;99.90;;;6.65;100.00;97209.66;5059134;28;20413;-80
2022/12/24 07:24:25;;;;;;;28.40;6.40;;;7.70;99.90;;;6.66;100.00;97222.59;5061035;28;20414;-78
2022/12/24 07:26:51;;;;;;;44.15;6.30;;;7.80;99.90;;;6.66;100.00;97225.22;5060348;28;20881;-78
2022/12/24 07:29:16;;;;;;;33.63;6.32;;;7.80;99.90;;;6.64;100.00;97237.81;5057034;28;20465;-78
2022/12/24 07:31:43;;;;;;;38.57;6.80;;;7.70;99.90;;;6.64;100.00;97248.31;5061730;28;20509;-88
2022/12/24 07:34:10;;;;;;;22.08;5.82;;;7.70;99.90;;;6.64;100.00;97247.53;5048834;28;20454;-88
2022/12/24 07:36:37;;;;;;;34.85;6.82;;;7.70;99.90;;;6.64;100.00;97248.31;5041847;28;20410;-90
2022/12/24 07:39:03;;;;;;;41.03;7.15;;;7.70;99.90;;;6.64;100.00;97235.16;5043840;28;20431;-89
2022/12/24 07:41:30;;;;;;;30.63;5.55;;;7.70;99.90;;;6.60;100.00;97241.94;5042373;28;20426;-89
2022/12/24 07:43:56;;;;;;;22.27;5.93;;;7.70;99.90;;;6.60;100.00;97242.72;5058327;28;20490;-89
2022/12/24 07:46:22;;;;;;;23.88;5.68;;;7.70;99.90;;;6.58;100.00;97242.16;5061483;28;20836;-90
2022/12/24 07:48:49;;;;;;;40.72;6.80;;;7.70;99.90;;;6.59;100.00;97241.13;5049771;28;20845;-89
2022/12/24 07:51:17;;;;;;;29.63;6.55;;;7.70;99.90;;;6.58;100.00;97247.41;5044342;28;20434;-89
2022/12/24 07:53:46;;;;;;;37.10;6.22;;;7.70;99.90;;;6.54;100.00;97253.38;5057491;28;20416;-88
2022/12/24 07:56:13;;;;;;;33.92;6.60;;;7.60;99.90;;;6.47;100.00;97242.13;5058898;28;20407;-88
2022/12/24 07:58:39;;;;;;;34.58;6.40;;;7.60;99.90;;;6.46;100.00;97258.97;5052152;28;20445;-89
2022/12/24 08:01:06;;;;;;;23.98;5.82;;;7.60;99.90;;;6.48;100.00;97257.69;5060053;28;20432;-82
2022/12/24 08:03:32;;;;;;;26.50;5.75;;;7.60;99.90;;;6.50;100.00;97262.72;5058692;28;20403;-82
2022/12/24 08:05:58;;;;;;;27.67;5.82;;;7.60;99.90;;;6.49;100.00;97264.56;5059800;28;20493;-82
2022/12/24 08:08:26;;;;;;;39.33;6.97;;;7.60;99.90;;;6.54;100.00;97267.28;5062483;28;20409;-81
2022/12/24 08:10:52;;;;;;;38.90;6.35;;;7.60;99.90;;;6.52;100.00;97265.94;5059174;28;20903;-82
2022/12/24 08:13:18;;;;;;;32.80;6.63;;;7.60;99.90;;;6.51;100.00;97264.34;5060163;28;21084;-76
2022/12/24 08:15:44;;;;;;;23.50;6.00;;;7.60;99.90;;;6.51;100.00;97273.03;5059559;28;20523;-76
2022/12/24 08:18:11;;;;;;;39.10;6.90;;;7.60;99.90;;;6.53;100.00;97270.97;5059734;28;20893;-79
2022/12/24 08:20:39;;;;;;;23.92;5.65;;;7.60;99.90;;;6.52;100.00;97269.38;5060889;28;20400;-78
2022/12/24 08:23:05;;;;;;;26.48;5.60;;;7.60;99.90;;;6.53;100.00;97259.66;5058399;28;20396;-79
2022/12/24 08:25:33;;;;;;;24.02;5.78;;;7.60;99.90;;;6.56;100.00;97273.13;5059683;28;20476;-77
2022/12/24 08:27:59;;;;;;;31.90;6.53;;;7.70;99.90;;;6.57;100.00;97274.75;5055486;28;20744;-75
2022/12/24 08:30:25;;;;;;;35.83;6.68;;;7.70;99.90;;;6.58;100.00;97286.06;5050066;28;20416;-71
2022/12/24 08:32:51;;;;;;;34.95;6.63;;;7.70;99.90;;;6.57;100.00;97289.72;5049038;28;20406;-72
2022/12/24 08:35:17;;;;;;;39.70;7.67;;;7.70;99.90;;;6.57;100.00;97287.88;5050203;28;20886;-72
2022/12/24 08:37:43;;;;;;;27.23;5.97;;;7.70;99.90;;;6.59;100.00;97288.47;5050007;28;20550;-72
2022/12/24 08:40:10;;;;;;;39.72;6.88;;;7.70;99.90;;;6.67;100.00;97294.41;5050135;28;20458;-72
2022/12/24 08:42:38;;;;;;;38.65;6.57;;;7.70;99.90;;;6.67;100.00;97297.03;5048959;28;20421;-73
2022/12/24 08:45:05;;;;;;;31.33;6.57;;;7.70;99.90;;;6.64;100.00;97293.03;5049952;28;20497;-73
2022/12/24 08:47:31;;;;;;;37.57;6.47;;;7.70;99.90;;;6.64;100.00;97298.28;5049872;28;20494;-74
2022/12/24 08:49:57;;;;;;;34.42;6.60;;;7.70;99.90;;;6.67;100.00;97294.41;5032150;28;20423;-73
2022/12/24 08:52:23;;;;;;;31.52;6.28;;;7.80;99.90;;;6.67;100.00;97300.47;5048307;28;20412;-73
2022/12/24 08:54:49;;;;;;;37.30;7.18;;;7.80;99.90;;;6.68;100.00;97309.97;5032016;28;20437;-76
2022/12/24 08:57:15;;;;;;;29.25;6.88;;;7.70;99.90;;;6.66;100.00;97316.47;5049771;28;20436;-78
2022/12/24 08:59:42;;;;;;;28.08;6.85;;;7.80;99.90;;;6.63;100.00;97312.47;5049959;28;20424;-76
2022/12/24 09:02:08;;;;;;;38.15;7.00;;;7.70;99.90;;;6.67;100.00;97313.63;5049042;28;20446;-76
2022/12/24 09:04:38;;;;;;;29.67;6.15;;;7.70;99.90;;;6.61;100.00;97311.91;5053851;28;20427;-75
2022/12/24 09:07:04;;;;;;;29.23;6.05;;;7.70;99.90;;;6.63;100.00;97320.34;5068659;28;20477;-78
2022/12/24 09:09:30;;;;;;;34.50;6.85;;;7.70;99.90;;;6.68;100.00;97331.03;5062953;28;20486;-74
2022/12/24 09:11:56;;;;;;;32.80;6.28;;;7.80;99.90;;;6.72;100.00;97332.16;5056882;28;20756;-74
2022/12/24 09:14:22;;;;;;;23.23;5.68;;;7.80;99.90;;;6.81;100.00;97328.16;5061933;28;20419;-79
2022/12/24 09:16:49;;;;;;;24.98;5.53;;;7.90;99.90;;;6.87;100.00;97324.59;5065642;28;20931;-73
2022/12/24 09:19:15;;;;;;;36.08;6.60;;;8.00;99.90;;;6.96;100.00;97336.41;5065462;28;20439;-76
2022/12/24 09:21:52;;;;;;;;;;;;;;;;;;;;;
2022/12/24 09:24:18;;;;;;;40.17;9.10;;;8.10;99.90;;;7.12;100.00;97347.28;5056390;28;20412;-79
2022/12/24 09:26:47;;;;;;;45.95;14.25;;;8.20;99.90;;;7.17;100.00;97347.38;5061441;28;20433;-77
2022/12/24 09:29:14;;;;;;;63.10;21.17;;;8.20;99.90;;;7.21;100.00;97341.44;5068707;28;20652;-77
2022/12/24 09:31:40;;;;;;;64.93;20.40;;;8.30;99.90;;;7.20;100.00;97347.72;5050711;28;20484;-77
2022/12/24 09:34:08;;;;;;;72.80;16.13;;;8.30;99.90;;;7.25;100.00;97355.72;5058351;22;20520;-72
2022/12/24 09:36:34;;;;;;;44.45;10.93;;;8.30;99.90;;;7.27;100.00;97356.31;5044309;28;20496;-74
2022/12/24 09:39:00;;;;;;;42.35;9.18;;;8.30;99.90;;;7.29;100.00;97350.81;5047908;28;20409;-74
2022/12/24 09:41:43;;;;;;;31.65;8.20;;;8.40;99.90;;;7.29;100.00;97350.81;5047493;28;20496;-74
2022/12/24 09:44:28;;;;;;;39.53;8.63;;;8.40;99.90;;;7.27;100.00;97350.25;5036154;28;20939;-74
2022/12/24 09:46:59;;;;;;;41.73;9.00;;;8.30;99.90;;;7.24;100.00;97348.84;5028852;28;20418;-74
2022/12/24 09:49:36;;;;;;;41.83;7.65;;;8.30;99.90;;;7.28;100.00;97347.38;5025751;28;20396;-73
2022/12/24 09:52:08;;;;;;;37.88;7.50;;;8.30;99.90;;;7.27;100.00;97348.41;5027693;28;20438;-73
2022/12/24 09:54:37;;;;;;;32.22;6.45;;;8.30;99.90;;;7.30;100.00;97342.66;5028977;28;20452;-75
2022/12/24 09:57:16;;;;;;;46.17;7.40;;;8.30;99.90;;;7.29;100.00;97345.53;5024512;28;20417;-76
2022/12/24 09:59:44;;;;;;;44.08;6.55;;;8.30;99.90;;;7.42;100.00;97341.84;5018107;28;20412;-71
2022/12/24 10:02:14;;;;;;;39.38;5.53;;;8.50;99.90;;;7.61;100.00;97336.19;5023762;28;20469;-71
2022/12/24 10:04:43;;;;;;;29.08;4.45;;;8.60;99.90;;;8.00;100.00;97345.13;5027658;28;20415;-72
2022/12/24 10:07:28;;;;;;;26.45;3.55;;;8.80;99.90;;;8.52;100.00;97345.81;5029255;28;20938;-71
2022/12/24 10:10:01;;;;;;;26.08;4.75;;;9.40;99.90;;;9.10;100.00;97326.13;5023490;28;20413;-72
2022/12/24 10:12:36;;;;;;;27.88;3.60;;;10.00;99.90;;;9.79;100.00;97331.75;5034332;28;20963;-72
2022/12/24 10:15:14;;;;;;;34.90;4.53;;;10.70;99.90;;;10.18;100.00;97331.69;5032696;28;20425;-72
2022/12/24 10:17:54;;;;;;;18.90;3.47;;;11.10;99.90;;;10.35;100.00;97335.03;5032984;28;20399;-72
2022/12/24 10:20:41;;;;;;;25.35;4.10;;;11.30;99.90;;;10.36;100.00;97336.63;5033291;28;20475;-72
2022/12/24 10:23:20;;;;;;;13.25;3.05;;;11.30;99.90;;;10.43;100.00;97347.81;5032204;28;20427;-72
2022/12/24 10:25:55;;;;;;;18.77;3.50;;;11.30;99.90;;;10.45;100.00;97353.63;5026678;28;20395;-72
2022/12/24 10:28:29;;;;;;;21.58;3.90;;;11.30;99.90;;;10.18;100.00;97356.28;5026423;28;20413;-72
2022/12/24 10:31:02;;;;;;;26.30;3.72;;;11.00;99.90;;;10.19;100.00;97354.44;5024195;28;20391;-72